createdAt,value
2023-03-15T00:00:54.682Z,99.90
2023-03-15T00:03:24.555Z,99.90
2023-03-15T00:05:54.996Z,99.90
2023-03-15T00:08:22.700Z,99.90
2023-03-15T00:10:50.440Z,99.90
2023-03-15T00:13:18.484Z,99.90
2023-03-15T00:15:51.797Z,99.90
2023-03-15T00:18:20.751Z,99.90
2023-03-15T00:20:49.013Z,99.90
2023-03-15T00:23:17.337Z,99.90
2023-03-15T00:25:46.985Z,99.90
2023-03-15T00:28:15.086Z,99.90
2023-03-15T00:30:43.267Z,99.90
2023-03-15T00:33:14.314Z,99.90
2023-03-15T00:35:43.872Z,99.90
2023-03-15T00:38:12.169Z,99.90
2023-03-15T00:40:42.759Z,99.90
2023-03-15T00:43:10.371Z,99.90
2023-03-15T00:45:38.097Z,99.90
2023-03-15T00:48:06.043Z,99.50
2023-03-15T00:50:33.759Z,99.30
2023-03-15T00:53:01.436Z,99.90
2023-03-15T00:55:29.584Z,99.90
2023-03-15T00:57:57.288Z,99.90
2023-03-15T01:00:25.186Z,99.90
2023-03-15T01:02:54.726Z,99.90
2023-03-15T01:05:22.921Z,98.40
2023-03-15T01:07:52.800Z,99.30
2023-03-15T01:10:20.522Z,99.10
2023-03-15T01:12:48.487Z,99.90
2023-03-15T01:15:16.640Z,99.90
2023-03-15T01:17:44.856Z,99.80
2023-03-15T01:20:15.188Z,99.30
2023-03-15T01:22:43.148Z,99.50
2023-03-15T01:25:10.848Z,99.50
2023-03-15T01:27:38.551Z,99.20
2023-03-15T01:30:06.981Z,99.40
2023-03-15T01:32:34.935Z,98.50
2023-03-15T01:35:02.771Z,99.10
2023-03-15T01:37:30.764Z,97.90
2023-03-15T01:39:58.836Z,98.70
2023-03-15T01:42:26.473Z,99.10
2023-03-15T01:45:00.089Z,98.20
2023-03-15T01:47:28.864Z,98.70
2023-03-15T01:50:11.649Z,98.20
2023-03-15T01:52:42.923Z,98.50
2023-03-15T01:55:19.863Z,98.20
2023-03-15T01:58:06.992Z,98.30
2023-03-15T02:00:38.263Z,98.50
2023-03-15T02:03:16.385Z,97.90
2023-03-15T02:05:49.344Z,97.90
2023-03-15T02:08:32.919Z,98.00
2023-03-15T02:11:04.333Z,97.40
2023-03-15T02:13:34.559Z,97.30
2023-03-15T02:16:07.353Z,97.10
2023-03-15T02:18:42.582Z,97.90
2023-03-15T02:21:16.129Z,96.80
2023-03-15T02:23:48.093Z,97.60
2023-03-15T02:26:27.452Z,98.40
2023-03-15T02:28:55.845Z,97.90
2023-03-15T02:31:23.451Z,97.90
2023-03-15T02:33:55.531Z,97.30
2023-03-15T02:36:26.230Z,97.30
2023-03-15T02:38:55.012Z,96.00
2023-03-15T02:41:27.393Z,96.00
2023-03-15T02:44:00.458Z,96.40
2023-03-15T02:46:28.737Z,95.00
2023-03-15T02:48:56.646Z,94.50
2023-03-15T02:51:28.508Z,94.90
2023-03-15T02:53:57.858Z,93.30
2023-03-15T02:56:28.028Z,92.70
2023-03-15T02:58:56.046Z,93.20
2023-03-15T03:01:23.911Z,93.40
2023-03-15T03:03:51.646Z,92.40
2023-03-15T03:06:20.737Z,92.70
2023-03-15T03:08:49.011Z,93.00
2023-03-15T03:11:20.071Z,93.30
2023-03-15T03:13:47.892Z,92.70
2023-03-15T03:16:15.888Z,92.20
2023-03-15T03:18:44.728Z,92.20
2023-03-15T03:21:12.289Z,92.10
2023-03-15T03:23:39.860Z,92.80
2023-03-15T03:26:16.929Z,92.60
2023-03-15T03:28:47.840Z,92.70
2023-03-15T03:31:22.183Z,92.20
2023-03-15T03:33:51.996Z,91.30
2023-03-15T03:36:20.322Z,92.30
2023-03-15T03:38:48.194Z,92.60
2023-03-15T03:41:16.186Z,92.60
2023-03-15T03:43:44.243Z,92.30
2023-03-15T03:46:12.251Z,91.20
2023-03-15T03:48:46.646Z,92.30
2023-03-15T03:51:15.287Z,91.70
2023-03-15T03:53:43.032Z,91.60
2023-03-15T03:56:11.363Z,91.10
2023-03-15T03:58:39.332Z,91.00
2023-03-15T04:01:15.197Z,91.50
2023-03-15T04:03:43.036Z,90.90
2023-03-15T04:06:16.439Z,91.10
2023-03-15T04:08:46.461Z,90.30
2023-03-15T04:11:26.841Z,90.30
2023-03-15T04:14:01.065Z,90.40
2023-03-15T04:16:29.351Z,91.00
2023-03-15T04:19:09.552Z,90.90
2023-03-15T04:21:38.294Z,90.80
2023-03-15T04:24:20.131Z,91.50
2023-03-15T04:27:06.281Z,90.60
2023-03-15T04:29:54.282Z,91.20
2023-03-15T04:32:58.897Z,90.60
2023-03-15T04:35:49.726Z,91.20
2023-03-15T04:38:40.390Z,91.40
2023-03-15T04:41:28.158Z,91.40
2023-03-15T04:44:06.926Z,91.70
2023-03-15T04:46:58.311Z,92.30
2023-03-15T04:49:42.436Z,92.60
2023-03-15T04:52:25.343Z,92.80
2023-03-15T04:55:10.247Z,93.70
2023-03-15T04:57:58.435Z,93.40
2023-03-15T05:00:57.524Z,94.00
2023-03-15T05:03:29.586Z,94.20
2023-03-15T05:06:17.815Z,94.50
2023-03-15T05:09:05.697Z,95.20
2023-03-15T05:11:36.057Z,95.40
2023-03-15T05:14:36.092Z,95.60
2023-03-15T05:17:12.228Z,96.00
2023-03-15T05:20:12.725Z,95.90
2023-03-15T05:22:59.098Z,96.80
2023-03-15T05:25:49.285Z,96.00
2023-03-15T05:28:46.183Z,96.20
2023-03-15T05:31:19.556Z,96.60
2023-03-15T05:34:13.985Z,96.30
2023-03-15T05:37:13.554Z,97.10
2023-03-15T05:40:01.622Z,97.50
2023-03-15T05:42:45.631Z,97.00
2023-03-15T05:45:32.673Z,97.50
2023-03-15T05:48:23.701Z,96.70
2023-03-15T05:51:13.389Z,97.40
2023-03-15T05:54:02.086Z,96.30
2023-03-15T05:56:53.162Z,95.90
2023-03-15T05:59:41.099Z,94.60
2023-03-15T06:02:14.538Z,94.40
2023-03-15T06:04:51.673Z,94.20
2023-03-15T06:07:22.959Z,93.20
2023-03-15T06:09:52.113Z,93.30
2023-03-15T06:12:20.247Z,92.60
2023-03-15T06:14:48.558Z,92.50
2023-03-15T06:17:17.484Z,92.40
2023-03-15T06:19:46.068Z,92.40
2023-03-15T06:22:13.790Z,92.20
2023-03-15T06:24:48.617Z,91.00
2023-03-15T06:27:16.495Z,91.00
2023-03-15T06:29:44.141Z,90.50
2023-03-15T06:32:12.491Z,91.30
2023-03-15T06:34:42.452Z,90.80
2023-03-15T06:37:10.632Z,91.20
2023-03-15T06:39:38.547Z,90.90
2023-03-15T06:42:08.432Z,90.90
2023-03-15T06:44:41.461Z,90.70
2023-03-15T06:47:11.123Z,90.60
2023-03-15T06:49:39.514Z,90.30
2023-03-15T06:52:08.067Z,90.80
2023-03-15T06:54:35.783Z,90.60
2023-03-15T06:57:06.637Z,90.90
2023-03-15T06:59:34.429Z,90.20
2023-03-15T07:02:02.144Z,90.80
2023-03-15T07:04:29.761Z,90.50
2023-03-15T07:06:57.503Z,90.40
2023-03-15T07:09:25.272Z,90.30
2023-03-15T07:11:52.848Z,90.40
2023-03-15T07:14:20.970Z,91.30
2023-03-15T07:16:49.253Z,90.70
2023-03-15T07:19:16.891Z,91.00
2023-03-15T07:21:44.541Z,90.50
2023-03-15T07:24:12.135Z,90.80
2023-03-15T07:26:42.443Z,90.10
2023-03-15T07:29:10.024Z,90.20
2023-03-15T07:31:37.643Z,89.50
2023-03-15T07:34:05.223Z,89.50
2023-03-15T07:36:32.791Z,87.90
2023-03-15T07:39:00.360Z,88.80
2023-03-15T07:41:27.946Z,87.50
2023-03-15T07:44:05.149Z,87.30
2023-03-15T07:46:33.010Z,86.40
2023-03-15T07:49:00.684Z,87.50
2023-03-15T07:51:28.261Z,86.00
2023-03-15T07:53:55.880Z,85.80
2023-03-15T07:56:23.496Z,85.10
2023-03-15T07:58:51.285Z,85.40
2023-03-15T08:01:20.146Z,85.40
2023-03-15T08:03:47.764Z,85.70
2023-03-15T08:06:15.505Z,85.70
2023-03-15T08:08:43.212Z,84.30
2023-03-15T08:11:10.968Z,83.40
2023-03-15T08:13:38.579Z,84.20
2023-03-15T08:16:06.425Z,84.80
2023-03-15T08:18:34.082Z,83.70
2023-03-15T08:21:01.923Z,85.60
2023-03-15T08:23:29.634Z,86.10
2023-03-15T08:25:57.774Z,82.90
2023-03-15T08:28:25.389Z,82.90
2023-03-15T08:30:53.342Z,83.80
2023-03-15T08:33:22.444Z,83.40
2023-03-15T08:35:56.652Z,83.30
2023-03-15T08:38:24.694Z,82.60
2023-03-15T08:41:00.144Z,81.60
2023-03-15T08:43:28.012Z,81.90
2023-03-15T08:46:02.913Z,81.20
2023-03-15T08:48:31.741Z,82.20
2023-03-15T08:51:04.241Z,80.40
2023-03-15T08:53:32.608Z,82.20
2023-03-15T08:56:00.520Z,81.60
2023-03-15T08:58:28.259Z,80.70
2023-03-15T09:00:57.511Z,80.00
2023-03-15T09:03:25.178Z,80.20
2023-03-15T09:05:57.692Z,81.10
2023-03-15T09:08:26.411Z,80.80
2023-03-15T09:10:58.243Z,80.60
2023-03-15T09:13:26.372Z,80.60
2023-03-15T09:15:54.746Z,79.20
2023-03-15T09:18:23.137Z,78.50
2023-03-15T09:21:09.392Z,78.80
2023-03-15T09:23:37.048Z,78.70
2023-03-15T09:26:04.916Z,78.20
2023-03-15T09:28:32.771Z,78.80
2023-03-15T09:31:03.948Z,79.30
2023-03-15T09:33:33.206Z,79.10
2023-03-15T09:36:01.174Z,80.20
2023-03-15T09:38:29.129Z,78.90
2023-03-15T09:41:01.674Z,79.20
2023-03-15T09:43:47.838Z,77.90
2023-03-15T09:47:06.071Z,79.10
2023-03-15T09:49:52.286Z,77.30
2023-03-15T09:52:46.406Z,78.80
2023-03-15T09:55:28.929Z,77.90
2023-03-15T09:57:59.621Z,77.90
2023-03-15T10:00:38.378Z,77.70
2023-03-15T10:03:10.017Z,77.50
2023-03-15T10:05:42.278Z,77.30
2023-03-15T10:08:17.482Z,76.60
2023-03-15T10:11:20.273Z,76.60
2023-03-15T10:14:03.178Z,77.80
2023-03-15T10:16:52.062Z,77.40
2023-03-15T10:19:40.220Z,77.70
2023-03-15T10:22:14.258Z,76.30
2023-03-15T10:25:05.203Z,76.70
2023-03-15T10:27:41.621Z,76.70
2023-03-15T10:30:21.787Z,76.20
2023-03-15T10:33:18.358Z,76.40
2023-03-15T10:35:46.314Z,77.20
2023-03-15T10:38:23.030Z,76.40
2023-03-15T10:40:53.368Z,76.50
2023-03-15T10:43:22.498Z,75.40
2023-03-15T10:46:06.883Z,75.60
2023-03-15T10:48:37.343Z,75.70
2023-03-15T10:51:25.015Z,74.60
2023-03-15T10:54:14.988Z,75.50
2023-03-15T10:56:47.666Z,74.90
2023-03-15T10:59:24.411Z,74.90
2023-03-15T11:02:14.235Z,74.40
2023-03-15T11:04:51.249Z,74.30
2023-03-15T11:07:18.865Z,74.40
2023-03-15T11:09:54.629Z,75.60
2023-03-15T11:12:30.487Z,74.20
2023-03-15T11:15:11.021Z,73.50
2023-03-15T11:17:44.815Z,74.60
2023-03-15T11:20:38.963Z,73.90
2023-03-15T11:23:17.219Z,74.60
2023-03-15T11:25:45.615Z,73.80
2023-03-15T11:28:18.765Z,74.40
2023-03-15T11:30:48.754Z,72.30
2023-03-15T11:33:43.290Z,73.80
2023-03-15T11:36:21.117Z,73.10
2023-03-15T11:38:49.867Z,74.10
2023-03-15T11:41:23.298Z,73.20
2023-03-15T11:43:59.723Z,71.50
2023-03-15T11:46:42.794Z,72.00
2023-03-15T11:49:47.599Z,72.10
2023-03-15T11:52:17.386Z,70.00
2023-03-15T11:54:46.840Z,70.30
2023-03-15T11:57:30.685Z,70.40
2023-03-15T12:00:20.118Z,70.70
2023-03-15T12:02:57.078Z,69.80
2023-03-15T12:05:45.110Z,70.00
2023-03-15T12:08:21.916Z,68.20
2023-03-15T12:10:49.907Z,68.80
2023-03-15T12:13:29.956Z,70.60
2023-03-15T12:15:58.420Z,70.50
2023-03-15T12:18:31.227Z,69.90
2023-03-15T12:21:08.074Z,69.20
2023-03-15T12:23:40.308Z,68.10
2023-03-15T12:26:17.009Z,69.90
2023-03-15T12:29:07.840Z,66.30
2023-03-15T12:31:55.027Z,68.20
2023-03-15T12:34:27.274Z,65.60
2023-03-15T12:37:08.691Z,66.60
2023-03-15T12:39:41.626Z,67.30
2023-03-15T12:42:32.197Z,66.60
2023-03-15T12:45:20.503Z,65.80
2023-03-15T12:47:54.074Z,64.10
2023-03-15T12:50:48.084Z,64.60
2023-03-15T12:53:26.097Z,66.70
2023-03-15T12:56:06.176Z,67.50
2023-03-15T12:58:37.514Z,64.30
2023-03-15T13:01:07.539Z,65.00
2023-03-15T13:03:36.757Z,64.80
2023-03-15T13:06:28.358Z,63.90
2023-03-15T13:09:17.888Z,64.50
2023-03-15T13:12:05.335Z,64.10
2023-03-15T13:14:57.048Z,63.20
2023-03-15T13:17:37.011Z,64.70
2023-03-15T13:20:28.981Z,63.40
2023-03-15T13:23:15.638Z,63.60
2023-03-15T13:26:06.565Z,62.60
2023-03-15T13:28:38.661Z,62.70
2023-03-15T13:31:20.021Z,62.00
2023-03-15T13:33:57.438Z,61.90
2023-03-15T13:36:46.217Z,62.70
2023-03-15T13:39:32.659Z,61.80
2023-03-15T13:42:05.686Z,64.60
2023-03-15T13:44:34.016Z,62.20
2023-03-15T13:47:01.661Z,61.60
2023-03-15T13:49:34.098Z,61.50
2023-03-15T13:52:12.123Z,63.10
2023-03-15T13:54:41.402Z,64.10
2023-03-15T13:57:19.275Z,63.20
2023-03-15T13:59:56.608Z,63.10
2023-03-15T14:02:33.298Z,61.80
2023-03-15T14:05:06.556Z,65.00
2023-03-15T14:07:48.592Z,62.60
2023-03-15T14:10:37.133Z,62.70
2023-03-15T14:13:33.672Z,63.10
2023-03-15T14:16:07.568Z,62.90
2023-03-15T14:18:37.841Z,62.70
2023-03-15T14:21:31.543Z,63.40
2023-03-15T14:24:06.540Z,62.20
2023-03-15T14:26:37.043Z,63.60
2023-03-15T14:29:11.508Z,63.80
2023-03-15T14:31:46.803Z,64.10
2023-03-15T14:34:30.250Z,64.70
2023-03-15T14:36:59.949Z,61.90
2023-03-15T14:39:38.666Z,62.10
2023-03-15T14:42:07.496Z,62.90
2023-03-15T14:44:35.193Z,61.60
2023-03-15T14:47:12.580Z,61.50
2023-03-15T14:49:40.263Z,61.70
2023-03-15T14:52:08.497Z,63.20
2023-03-15T14:54:36.214Z,62.20
2023-03-15T14:57:04.500Z,62.20
2023-03-15T14:59:32.142Z,62.20
2023-03-15T15:02:01.361Z,62.60
2023-03-15T15:04:33.948Z,63.10
2023-03-15T15:07:04.218Z,62.90
2023-03-15T15:09:32.028Z,61.40
2023-03-15T15:12:00.320Z,61.80
2023-03-15T15:14:28.078Z,61.60
2023-03-15T15:16:56.030Z,61.20
2023-03-15T15:19:23.874Z,61.90
2023-03-15T15:21:51.851Z,61.60
2023-03-15T15:24:23.442Z,61.00
2023-03-15T15:26:51.361Z,60.90
2023-03-15T15:29:18.916Z,60.90
2023-03-15T15:31:46.761Z,61.50
2023-03-15T15:34:14.549Z,60.60
2023-03-15T15:36:44.718Z,60.30
2023-03-15T15:39:24.009Z,59.80
2023-03-15T15:41:52.908Z,59.20
2023-03-15T15:44:25.662Z,58.40
2023-03-15T15:46:53.810Z,58.90
2023-03-15T15:49:21.667Z,58.30
2023-03-15T15:51:50.151Z,58.80
2023-03-15T15:54:31.689Z,58.50
2023-03-15T15:57:01.491Z,59.30
2023-03-15T15:59:30.992Z,58.40
2023-03-15T16:02:01.969Z,59.10
2023-03-15T16:04:30.598Z,59.60
2023-03-15T16:07:02.226Z,59.20
2023-03-15T16:09:35.938Z,59.50
2023-03-15T16:12:13.185Z,59.60
2023-03-15T16:14:42.510Z,60.60
2023-03-15T16:17:13.082Z,59.30
2023-03-15T16:19:40.805Z,59.50
2023-03-15T16:22:08.780Z,60.50
2023-03-15T16:24:44.335Z,60.40
2023-03-15T16:27:16.694Z,60.40
2023-03-15T16:29:49.893Z,59.90
2023-03-15T16:32:36.894Z,59.90
2023-03-15T16:35:17.228Z,60.00
2023-03-15T16:37:47.557Z,60.80
2023-03-15T16:40:27.707Z,60.00
2023-03-15T16:42:58.684Z,60.20
2023-03-15T16:45:27.759Z,62.00
2023-03-15T16:47:57.330Z,60.70
2023-03-15T16:50:26.478Z,60.70
2023-03-15T16:52:58.903Z,61.60
2023-03-15T16:55:29.432Z,61.20
2023-03-15T16:57:58.553Z,62.90
2023-03-15T17:00:27.266Z,62.80
2023-03-15T17:02:55.730Z,63.00
2023-03-15T17:05:25.285Z,61.50
2023-03-15T17:07:55.801Z,60.90
2023-03-15T17:10:26.173Z,62.00
2023-03-15T17:12:56.997Z,61.40
2023-03-15T17:15:28.007Z,61.80
2023-03-15T17:17:59.673Z,61.50
2023-03-15T17:20:30.061Z,61.80
2023-03-15T17:23:04.259Z,62.00
2023-03-15T17:25:34.748Z,62.00
2023-03-15T17:28:05.589Z,60.90
2023-03-15T17:30:42.101Z,60.30
2023-03-15T17:33:12.007Z,61.30
2023-03-15T17:35:54.577Z,60.80
2023-03-15T17:38:32.827Z,60.90
2023-03-15T17:41:06.548Z,60.10
2023-03-15T17:43:38.043Z,59.50
2023-03-15T17:46:12.781Z,59.70
2023-03-15T17:48:42.610Z,60.90
2023-03-15T17:51:17.394Z,60.00
2023-03-15T17:53:46.664Z,59.70
2023-03-15T17:56:15.114Z,60.40
2023-03-15T17:58:50.146Z,60.00
2023-03-15T18:01:29.531Z,60.80
2023-03-15T18:03:58.186Z,59.80
2023-03-15T18:06:27.310Z,60.10
2023-03-15T18:08:57.023Z,60.00
2023-03-15T18:11:37.820Z,59.80
2023-03-15T18:14:06.602Z,60.40
2023-03-15T18:16:35.644Z,60.30
2023-03-15T18:19:04.236Z,59.70
2023-03-15T18:21:33.579Z,60.10
2023-03-15T18:24:02.430Z,60.40
2023-03-15T18:26:32.188Z,60.70
2023-03-15T18:29:02.368Z,61.10
2023-03-15T18:31:32.079Z,60.20
2023-03-15T18:34:01.982Z,61.10
2023-03-15T18:36:31.924Z,60.50
2023-03-15T18:39:00.666Z,60.20
2023-03-15T18:41:31.190Z,61.00
2023-03-15T18:44:00.324Z,60.00
2023-03-15T18:46:30.462Z,60.40
2023-03-15T18:48:59.942Z,60.70
2023-03-15T18:51:29.526Z,60.90
2023-03-15T18:53:58.002Z,60.70
2023-03-15T18:56:35.512Z,60.60
2023-03-15T18:59:04.708Z,60.40
2023-03-15T19:01:33.581Z,60.00
2023-03-15T19:04:03.475Z,60.90
2023-03-15T19:06:34.314Z,60.70
2023-03-15T19:09:08.506Z,60.00
2023-03-15T19:11:43.089Z,60.50
2023-03-15T19:14:12.332Z,60.30
2023-03-15T19:16:42.669Z,60.20
2023-03-15T19:19:13.818Z,60.20
2023-03-15T19:21:43.350Z,59.90
2023-03-15T19:24:12.693Z,59.70
2023-03-15T19:26:41.973Z,60.00
2023-03-15T19:29:15.438Z,59.90
2023-03-15T19:31:47.271Z,60.40
2023-03-15T19:34:23.026Z,61.20
2023-03-15T19:36:53.895Z,61.20
2023-03-15T19:39:23.487Z,61.20
2023-03-15T19:41:52.668Z,60.40
2023-03-15T19:44:24.309Z,60.10
2023-03-15T19:46:53.409Z,60.00
2023-03-15T19:49:24.567Z,60.10
2023-03-15T19:51:54.390Z,59.90
2023-03-15T19:54:26.038Z,61.30
2023-03-15T19:56:59.975Z,61.10
2023-03-15T19:59:29.926Z,61.10
2023-03-15T20:02:01.964Z,61.20
2023-03-15T20:04:32.522Z,61.10
2023-03-15T20:07:01.986Z,61.90
2023-03-15T20:09:35.424Z,62.20
2023-03-15T20:12:07.377Z,62.80
2023-03-15T20:14:39.082Z,63.00
2023-03-15T20:17:09.131Z,63.30
2023-03-15T20:19:40.706Z,63.20
2023-03-15T20:22:11.063Z,63.80
2023-03-15T20:24:42.741Z,63.80
2023-03-15T20:27:14.014Z,64.10
2023-03-15T20:29:43.915Z,63.90
2023-03-15T20:32:13.149Z,64.30
2023-03-15T20:34:43.150Z,64.10
2023-03-15T20:37:14.955Z,64.20
2023-03-15T20:39:45.741Z,64.40
2023-03-15T20:42:15.194Z,64.70
2023-03-15T20:44:45.378Z,64.70
2023-03-15T20:47:15.239Z,65.30
2023-03-15T20:49:47.218Z,65.60
2023-03-15T20:52:16.240Z,65.00
2023-03-15T20:54:49.651Z,65.10
2023-03-15T20:57:19.577Z,64.90
2023-03-15T20:59:51.396Z,65.50
2023-03-15T21:02:23.835Z,65.10
2023-03-15T21:04:52.368Z,65.30
2023-03-15T21:07:21.290Z,65.60
2023-03-15T21:09:50.490Z,65.60
2023-03-15T21:12:20.457Z,65.30
2023-03-15T21:14:49.471Z,66.00
2023-03-15T21:17:17.673Z,65.50
2023-03-15T21:19:47.017Z,66.10
2023-03-15T21:22:15.939Z,66.20
2023-03-15T21:24:55.113Z,66.60
2023-03-15T21:27:26.585Z,66.20
2023-03-15T21:29:55.372Z,66.60
2023-03-15T21:32:24.259Z,66.30
2023-03-15T21:34:53.129Z,66.40
2023-03-15T21:37:21.690Z,65.50
2023-03-15T21:39:50.343Z,66.00
2023-03-15T21:42:18.877Z,65.80
2023-03-15T21:44:47.252Z,66.20
2023-03-15T21:47:17.804Z,66.30
2023-03-15T21:49:47.116Z,66.50
2023-03-15T21:52:16.884Z,66.70
2023-03-15T21:54:46.743Z,66.00
2023-03-15T21:57:15.664Z,65.90
2023-03-15T21:59:43.531Z,66.20
2023-03-15T22:02:14.384Z,66.60
2023-03-15T22:04:42.850Z,66.30
2023-03-15T22:07:11.413Z,66.70
2023-03-15T22:09:40.145Z,66.80
2023-03-15T22:12:08.490Z,66.80
2023-03-15T22:14:36.138Z,66.30
2023-03-15T22:17:04.916Z,66.40
2023-03-15T22:19:32.643Z,66.20
2023-03-15T22:22:01.074Z,66.40
2023-03-15T22:24:29.375Z,65.60
2023-03-15T22:26:57.039Z,66.00
2023-03-15T22:29:24.636Z,66.30
2023-03-15T22:31:52.271Z,66.50
2023-03-15T22:34:20.081Z,67.00
2023-03-15T22:36:47.617Z,65.90
2023-03-15T22:39:15.261Z,66.10
2023-03-15T22:41:42.811Z,66.60
2023-03-15T22:44:10.613Z,65.90
2023-03-15T22:46:38.271Z,65.90
2023-03-15T22:49:05.934Z,66.00
2023-03-15T22:51:33.554Z,66.00
2023-03-15T22:54:01.268Z,65.70
2023-03-15T22:56:28.834Z,65.70
2023-03-15T22:58:56.567Z,65.50
2023-03-15T23:01:24.663Z,66.20
2023-03-15T23:03:52.404Z,65.70
2023-03-15T23:06:20.990Z,66.10
2023-03-15T23:08:48.861Z,66.10
2023-03-15T23:11:16.992Z,65.80
2023-03-15T23:13:48.554Z,64.90
2023-03-15T23:16:17.499Z,66.10
2023-03-15T23:18:45.559Z,66.70
2023-03-15T23:21:14.611Z,66.10
2023-03-15T23:23:45.556Z,65.90
2023-03-15T23:26:15.389Z,66.20
2023-03-15T23:28:43.775Z,66.20
2023-03-15T23:31:11.716Z,66.70
2023-03-15T23:33:39.409Z,66.50
2023-03-15T23:36:07.931Z,66.50
2023-03-15T23:38:35.606Z,66.40
2023-03-15T23:41:05.068Z,66.30
2023-03-15T23:43:33.689Z,67.00
2023-03-15T23:46:05.463Z,67.00
2023-03-15T23:48:35.808Z,67.30
2023-03-15T23:51:03.578Z,67.80
2023-03-15T23:53:32.085Z,68.00
2023-03-15T23:56:00.189Z,68.00
2023-03-15T23:58:28.474Z,68.20
